createdAt,value
2022-08-17T00:00:10.226Z,21.43
2022-08-17T00:03:11.793Z,21.39
2022-08-17T00:06:12.229Z,21.38
2022-08-17T00:08:45.912Z,21.37
2022-08-17T00:11:19.860Z,21.31
2022-08-17T00:13:56.023Z,21.31
2022-08-17T00:16:56.068Z,21.29
2022-08-17T00:19:15.813Z,21.27
2022-08-17T00:22:30.877Z,21.26
2022-08-17T00:24:33.891Z,21.23
2022-08-17T00:27:00.940Z,21.21
2022-08-17T00:29:27.833Z,21.19
2022-08-17T00:31:54.722Z,21.19
2022-08-17T00:34:21.795Z,21.15
2022-08-17T00:36:48.772Z,21.14
2022-08-17T00:39:15.679Z,21.12
2022-08-17T00:41:42.847Z,21.10
2022-08-17T00:44:09.874Z,21.09
2022-08-17T00:46:41.137Z,21.10
2022-08-17T00:49:10.433Z,21.07
2022-08-17T00:51:55.215Z,21.06
2022-08-17T00:54:27.546Z,21.07
2022-08-17T00:56:58.919Z,21.03
2022-08-17T00:59:33.199Z,21.00
2022-08-17T01:02:00.919Z,20.98
2022-08-17T01:04:29.606Z,20.96
2022-08-17T01:06:58.176Z,20.93
2022-08-17T01:09:25.748Z,20.92
2022-08-17T01:11:52.718Z,20.90
2022-08-17T01:14:25.683Z,20.90
2022-08-17T01:16:55.134Z,20.88
2022-08-17T01:19:26.369Z,20.87
2022-08-17T01:22:16.738Z,20.89
2022-08-17T01:24:47.747Z,20.87
2022-08-17T01:27:18.495Z,20.86
2022-08-17T01:29:52.786Z,20.84
2022-08-17T01:32:20.076Z,20.83
2022-08-17T01:34:50.496Z,20.82
2022-08-17T01:37:19.450Z,20.80
2022-08-17T01:39:57.362Z,20.82
2022-08-17T01:42:33.383Z,20.84
2022-08-17T01:45:09.127Z,20.83
2022-08-17T01:47:37.701Z,20.83
2022-08-17T01:50:11.291Z,20.83
2022-08-17T01:52:39.624Z,20.81
2022-08-17T01:55:07.379Z,20.80
2022-08-17T01:57:34.530Z,20.75
2022-08-17T02:00:01.852Z,20.75
2022-08-17T02:02:38.270Z,20.72
2022-08-17T02:05:06.072Z,20.71
2022-08-17T02:07:33.086Z,20.68
2022-08-17T02:10:20.523Z,20.64
2022-08-17T02:12:49.064Z,20.55
2022-08-17T02:15:16.528Z,20.54
2022-08-17T02:17:43.552Z,20.59
2022-08-17T02:20:10.944Z,20.60
2022-08-17T02:22:40.466Z,20.60
2022-08-17T02:25:10.059Z,20.59
2022-08-17T02:27:38.877Z,20.60
2022-08-17T02:30:59.656Z,20.56
2022-08-17T02:32:56.233Z,20.59
2022-08-17T02:35:23.959Z,20.58
2022-08-17T02:37:55.367Z,20.59
2022-08-17T02:40:36.371Z,20.55
2022-08-17T02:43:05.318Z,20.57
2022-08-17T02:45:32.394Z,20.60
2022-08-17T02:47:59.572Z,20.62
2022-08-17T02:50:26.917Z,20.63
2022-08-17T02:53:01.760Z,20.64
2022-08-17T02:55:33.917Z,20.70
2022-08-17T02:58:01.878Z,20.71
2022-08-17T03:00:34.742Z,20.76
2022-08-17T03:03:04.472Z,20.82
2022-08-17T03:05:34.370Z,20.87
2022-08-17T03:08:01.961Z,20.92
2022-08-17T03:10:29.852Z,20.96
2022-08-17T03:12:56.922Z,21.00
2022-08-17T03:15:27.663Z,21.02
2022-08-17T03:17:56.793Z,21.07
2022-08-17T03:20:25.492Z,21.09
2022-08-17T03:22:55.171Z,21.12
2022-08-17T03:25:35.674Z,21.16
2022-08-17T03:28:03.465Z,21.19
2022-08-17T03:30:31.179Z,21.22
2022-08-17T03:33:00.941Z,21.28
2022-08-17T03:35:31.562Z,21.30
2022-08-17T03:38:00.228Z,21.34
2022-08-17T03:40:34.602Z,21.39
2022-08-17T03:43:19.485Z,21.42
2022-08-17T03:46:04.759Z,21.48
2022-08-17T03:48:51.442Z,21.54
2022-08-17T03:51:41.298Z,21.56
2022-08-17T03:54:28.220Z,21.65
2022-08-17T03:57:06.952Z,21.73
2022-08-17T03:59:35.236Z,21.76
2022-08-17T04:02:09.654Z,21.82
2022-08-17T04:04:37.996Z,21.86
2022-08-17T04:07:05.688Z,21.92
2022-08-17T04:09:32.685Z,21.95
2022-08-17T04:12:02.426Z,22.01
2022-08-17T04:14:53.030Z,22.07
2022-08-17T04:17:27.976Z,22.15
2022-08-17T04:19:55.852Z,22.22
2022-08-17T04:22:30.508Z,22.29
2022-08-17T04:25:16.702Z,22.41
2022-08-17T04:27:44.048Z,22.53
2022-08-17T04:30:11.639Z,22.63
2022-08-17T04:33:06.482Z,22.79
2022-08-17T04:35:50.608Z,22.93
2022-08-17T04:38:22.539Z,23.04
2022-08-17T04:41:08.554Z,23.12
2022-08-17T04:43:37.592Z,23.20
2022-08-17T04:46:08.259Z,23.24
2022-08-17T04:48:55.356Z,23.22
2022-08-17T04:51:49.674Z,23.22
2022-08-17T04:54:23.097Z,23.17
2022-08-17T04:56:50.141Z,23.17
2022-08-17T04:59:22.412Z,23.19
2022-08-17T05:01:52.138Z,23.23
2022-08-17T05:04:33.950Z,23.28
2022-08-17T05:07:04.717Z,23.35
2022-08-17T05:09:38.458Z,23.42
2022-08-17T05:12:29.960Z,23.52
2022-08-17T05:14:56.935Z,23.58
2022-08-17T05:17:23.809Z,23.64
2022-08-17T05:19:52.114Z,23.71
2022-08-17T05:22:19.154Z,23.77
2022-08-17T05:24:53.710Z,23.83
2022-08-17T05:27:21.123Z,23.91
2022-08-17T05:29:50.365Z,23.99
2022-08-17T05:32:38.735Z,24.10
2022-08-17T05:35:07.879Z,24.20
2022-08-17T05:37:34.822Z,24.30
2022-08-17T05:40:01.888Z,24.38
2022-08-17T05:42:29.442Z,24.46
2022-08-17T05:44:57.991Z,24.54
2022-08-17T05:47:26.770Z,24.62
2022-08-17T05:49:54.161Z,24.67
2022-08-17T05:52:27.338Z,24.76
2022-08-17T05:55:03.332Z,24.82
2022-08-17T05:58:07.042Z,24.89
2022-08-17T06:00:50.831Z,24.91
2022-08-17T06:03:38.602Z,24.97
2022-08-17T06:06:14.770Z,25.00
2022-08-17T06:08:51.936Z,25.00
2022-08-17T06:11:28.339Z,24.99
2022-08-17T06:14:09.815Z,25.01
2022-08-17T06:16:45.714Z,25.07
2022-08-17T06:19:40.782Z,25.21
2022-08-17T06:22:10.194Z,25.28
2022-08-17T06:24:53.349Z,25.35
2022-08-17T06:27:25.444Z,25.46
2022-08-17T06:30:15.455Z,25.50
2022-08-17T06:32:46.229Z,25.52
2022-08-17T06:35:30.039Z,25.57
2022-08-17T06:38:36.975Z,25.67
2022-08-17T06:41:43.625Z,25.71
2022-08-17T06:44:43.433Z,25.69
2022-08-17T06:47:36.394Z,25.72
2022-08-17T06:50:35.157Z,25.71
2022-08-17T06:53:25.917Z,25.72
2022-08-17T06:56:06.400Z,25.75
2022-08-17T06:58:35.816Z,25.77
2022-08-17T07:01:13.080Z,25.83
2022-08-17T07:03:54.688Z,25.85
2022-08-17T07:06:27.121Z,25.97
2022-08-17T07:09:02.614Z,26.02
2022-08-17T07:11:36.409Z,26.05
2022-08-17T07:14:25.192Z,26.13
2022-08-17T07:16:56.356Z,26.18
2022-08-17T07:19:31.789Z,26.26
2022-08-17T07:22:06.681Z,26.36
2022-08-17T07:24:35.642Z,26.47
2022-08-17T07:27:21.389Z,26.61
2022-08-17T07:29:50.813Z,26.70
2022-08-17T07:32:23.020Z,26.79
2022-08-17T07:35:41.441Z,26.93
2022-08-17T07:38:24.763Z,26.98
2022-08-17T07:41:02.211Z,27.01
2022-08-17T07:43:41.600Z,27.07
2022-08-17T07:46:29.815Z,27.08
2022-08-17T07:49:16.583Z,27.10
2022-08-17T07:51:43.508Z,27.15
2022-08-17T07:54:40.902Z,27.23
2022-08-17T07:57:13.689Z,27.26
2022-08-17T07:59:43.716Z,27.37
2022-08-17T08:02:33.567Z,27.41
2022-08-17T08:05:10.081Z,27.44
2022-08-17T08:07:52.324Z,27.52
2022-08-17T08:10:27.926Z,27.61
2022-08-17T08:13:14.246Z,27.69
2022-08-17T08:15:45.192Z,27.69
2022-08-17T08:18:53.562Z,27.79
2022-08-17T08:21:35.471Z,27.86
2022-08-17T08:24:11.251Z,27.93
2022-08-17T08:26:47.954Z,28.00
2022-08-17T08:29:38.081Z,28.08
2022-08-17T08:32:10.987Z,28.13
2022-08-17T08:35:06.802Z,28.21
2022-08-17T08:37:44.987Z,28.26
2022-08-17T08:40:39.198Z,28.33
2022-08-17T08:43:22.111Z,28.35
2022-08-17T08:46:27.102Z,28.40
2022-08-17T08:49:12.703Z,28.37
2022-08-17T08:51:52.853Z,28.37
2022-08-17T08:54:45.288Z,28.40
2022-08-17T08:57:47.225Z,28.47
2022-08-17T09:00:23.067Z,28.48
2022-08-17T09:03:08.553Z,28.58
2022-08-17T09:06:06.926Z,28.61
2022-08-17T09:09:31.429Z,28.64
2022-08-17T09:12:05.129Z,28.66
2022-08-17T09:14:46.937Z,28.69
2022-08-17T09:17:27.960Z,28.76
2022-08-17T09:20:02.328Z,28.78
2022-08-17T09:22:37.129Z,28.84
2022-08-17T09:25:10.946Z,28.91
2022-08-17T09:27:47.825Z,28.97
2022-08-17T09:30:15.180Z,29.04
2022-08-17T09:32:45.661Z,29.08
2022-08-17T09:35:22.883Z,29.14
2022-08-17T09:38:23.599Z,29.22
2022-08-17T09:40:56.437Z,29.28
2022-08-17T09:43:38.615Z,29.34
2022-08-17T09:46:19.460Z,29.34
2022-08-17T09:49:09.804Z,29.36
2022-08-17T09:51:44.231Z,29.38
2022-08-17T09:54:38.696Z,29.41
2022-08-17T09:57:40.122Z,29.45
2022-08-17T10:00:16.681Z,29.50
2022-08-17T10:03:05.336Z,29.58
2022-08-17T10:06:02.865Z,29.66
2022-08-17T10:08:48.386Z,29.74
2022-08-17T10:12:17.205Z,29.82
2022-08-17T10:15:08.247Z,29.85
2022-08-17T10:17:56.509Z,29.92
2022-08-17T10:20:28.031Z,29.91
2022-08-17T10:23:35.082Z,29.94
2022-08-17T10:26:46.228Z,29.96
2022-08-17T10:29:48.974Z,30.02
2022-08-17T10:32:32.949Z,30.05
2022-08-17T10:35:29.029Z,30.10
2022-08-17T10:38:01.534Z,30.13
2022-08-17T10:40:47.399Z,30.27
2022-08-17T10:43:20.198Z,30.32
2022-08-17T10:46:10.557Z,30.39
2022-08-17T10:49:24.686Z,30.47
2022-08-17T10:51:54.945Z,30.47
2022-08-17T10:54:24.605Z,30.49
2022-08-17T10:56:54.580Z,30.50
2022-08-17T10:59:36.836Z,30.55
2022-08-17T11:02:15.788Z,30.55
2022-08-17T11:05:02.385Z,30.62
2022-08-17T11:07:46.889Z,30.72
2022-08-17T11:10:52.313Z,30.77
2022-08-17T11:13:45.052Z,30.73
2022-08-17T11:16:48.118Z,30.81
2022-08-17T11:19:49.089Z,30.78
2022-08-17T11:22:55.755Z,30.70
2022-08-17T11:25:36.165Z,30.64
2022-08-17T11:28:26.038Z,30.67
2022-08-17T11:30:59.669Z,30.72
2022-08-17T11:33:30.563Z,30.88
2022-08-17T11:36:24.644Z,31.01
2022-08-17T11:39:21.888Z,31.21
2022-08-17T11:42:04.956Z,31.33
2022-08-17T11:44:42.358Z,31.38
2022-08-17T11:47:40.812Z,31.46
2022-08-17T11:50:55.862Z,31.61
2022-08-17T11:53:37.785Z,31.87
2022-08-17T11:56:12.481Z,32.04
2022-08-17T11:58:44.544Z,32.13
2022-08-17T12:01:13.572Z,32.37
2022-08-17T12:03:55.315Z,32.58
2022-08-17T12:06:45.061Z,32.95
2022-08-17T12:09:29.980Z,33.50
2022-08-17T12:12:12.909Z,34.06
2022-08-17T12:15:09.572Z,34.52
2022-08-17T12:17:41.640Z,34.75
2022-08-17T12:20:34.340Z,35.29
2022-08-17T12:23:11.972Z,35.66
2022-08-17T12:25:57.205Z,36.25
2022-08-17T12:28:35.121Z,36.84
2022-08-17T12:31:07.400Z,37.29
2022-08-17T12:33:37.276Z,37.72
2022-08-17T12:36:08.799Z,38.00
2022-08-17T12:38:38.009Z,38.37
2022-08-17T12:41:26.081Z,38.88
2022-08-17T12:44:22.328Z,38.88
2022-08-17T12:47:00.601Z,40.01
2022-08-17T12:49:33.514Z,40.15
2022-08-17T12:52:15.339Z,40.42
2022-08-17T12:54:42.255Z,40.65
2022-08-17T12:57:38.306Z,41.03
2022-08-17T13:00:21.920Z,40.88
2022-08-17T13:02:52.618Z,40.63
2022-08-17T13:05:42.607Z,40.67
2022-08-17T13:08:23.462Z,40.97
2022-08-17T13:10:59.821Z,41.32
2022-08-17T13:13:34.824Z,41.75
2022-08-17T13:16:06.238Z,41.92
2022-08-17T13:18:39.145Z,42.11
2022-08-17T13:21:12.355Z,42.00
2022-08-17T13:23:39.364Z,41.95
2022-08-17T13:26:17.999Z,41.68
2022-08-17T13:28:51.839Z,41.25
2022-08-17T13:31:39.402Z,40.83
2022-08-17T13:34:26.964Z,40.88
2022-08-17T13:37:34.740Z,41.12
2022-08-17T13:40:11.929Z,41.33
2022-08-17T13:42:53.164Z,41.16
2022-08-17T13:45:35.970Z,41.04
2022-08-17T13:48:06.574Z,40.99
2022-08-17T13:50:56.567Z,41.21
2022-08-17T13:53:50.985Z,41.27
2022-08-17T13:56:38.722Z,41.52
2022-08-17T13:59:06.202Z,41.72
2022-08-17T14:01:33.268Z,41.98
2022-08-17T14:04:03.105Z,41.99
2022-08-17T14:06:54.105Z,42.07
2022-08-17T14:09:25.665Z,41.85
2022-08-17T14:11:54.773Z,41.78
2022-08-17T14:14:23.370Z,41.65
2022-08-17T14:16:51.691Z,41.40
2022-08-17T14:19:19.185Z,41.09
2022-08-17T14:21:48.960Z,40.91
2022-08-17T14:24:21.749Z,40.79
2022-08-17T14:26:49.905Z,40.68
2022-08-17T14:29:16.938Z,40.89
2022-08-17T14:31:48.570Z,41.05
2022-08-17T14:34:22.583Z,40.90
2022-08-17T14:36:50.110Z,40.71
2022-08-17T14:39:18.795Z,40.39
2022-08-17T14:41:46.284Z,40.09
2022-08-17T14:44:16.515Z,39.94
2022-08-17T14:46:44.987Z,39.86
2022-08-17T14:49:15.863Z,39.51
2022-08-17T14:51:48.368Z,39.18
2022-08-17T14:54:33.339Z,38.81
2022-08-17T14:57:23.119Z,38.55
2022-08-17T14:59:55.851Z,38.47
2022-08-17T15:02:29.623Z,38.35
2022-08-17T15:05:06.485Z,38.27
2022-08-17T15:08:06.045Z,38.30
2022-08-17T15:10:33.216Z,38.23
2022-08-17T15:13:00.624Z,38.23
2022-08-17T15:15:31.967Z,38.22
2022-08-17T15:18:00.464Z,38.19
2022-08-17T15:20:33.523Z,38.31
2022-08-17T15:23:03.389Z,38.40
2022-08-17T15:25:32.373Z,38.31
2022-08-17T15:28:02.334Z,38.26
2022-08-17T15:30:29.848Z,38.19
2022-08-17T15:33:46.792Z,38.19
2022-08-17T15:36:23.234Z,37.92
2022-08-17T15:38:51.205Z,37.62
2022-08-17T15:41:19.415Z,36.84
2022-08-17T15:43:50.043Z,36.04
2022-08-17T15:46:19.889Z,35.40
2022-08-17T15:48:50.517Z,34.71
2022-08-17T15:51:20.631Z,34.09
2022-08-17T15:53:50.738Z,33.54
2022-08-17T15:56:18.006Z,33.15
2022-08-17T15:58:47.008Z,32.68
2022-08-17T16:01:31.331Z,32.29
2022-08-17T16:04:26.371Z,-142.79
2022-08-17T16:06:52.085Z,-142.79
2022-08-17T16:09:19.325Z,30.97
2022-08-17T16:11:46.598Z,30.76
2022-08-17T16:14:32.391Z,30.62
2022-08-17T16:17:39.958Z,30.73
2022-08-17T16:20:08.942Z,30.81
2022-08-17T16:22:43.802Z,30.90
2022-08-17T16:25:19.221Z,30.78
2022-08-17T16:27:49.693Z,30.75
2022-08-17T16:30:21.017Z,30.70
2022-08-17T16:32:51.703Z,30.61
2022-08-17T16:35:33.837Z,30.42
2022-08-17T16:38:08.160Z,30.31
2022-08-17T16:40:36.420Z,30.18
2022-08-17T16:43:04.351Z,29.98
2022-08-17T16:45:40.800Z,29.81
2022-08-17T16:48:09.894Z,29.56
2022-08-17T16:50:37.307Z,29.29
2022-08-17T16:53:10.734Z,29.03
2022-08-17T16:55:38.219Z,28.76
2022-08-17T16:58:06.847Z,28.52
2022-08-17T17:00:34.321Z,28.29
2022-08-17T17:03:19.606Z,28.04
2022-08-17T17:05:51.394Z,27.86
2022-08-17T17:08:35.231Z,27.58
2022-08-17T17:11:27.775Z,27.49
2022-08-17T17:14:02.227Z,27.32
2022-08-17T17:16:29.397Z,27.19
2022-08-17T17:19:34.985Z,27.06
2022-08-17T17:22:17.383Z,26.94
2022-08-17T17:24:49.966Z,26.82
2022-08-17T17:27:29.623Z,26.71
2022-08-17T17:30:07.563Z,26.61
2022-08-17T17:32:43.775Z,26.52
2022-08-17T17:35:25.859Z,26.44
2022-08-17T17:37:57.450Z,26.34
2022-08-17T17:40:39.238Z,26.27
2022-08-17T17:43:37.190Z,26.20
2022-08-17T17:46:27.724Z,26.14
2022-08-17T17:48:55.145Z,26.07
2022-08-17T17:52:09.263Z,26.02
2022-08-17T17:54:56.716Z,25.97
2022-08-17T17:57:54.711Z,25.89
2022-08-17T18:00:26.123Z,25.79
2022-08-17T18:03:02.067Z,25.77
2022-08-17T18:05:38.978Z,25.73
2022-08-17T18:08:34.899Z,25.68
2022-08-17T18:11:25.415Z,25.61
2022-08-17T18:14:17.390Z,25.59
2022-08-17T18:16:46.493Z,25.52
2022-08-17T18:19:20.801Z,25.50
2022-08-17T18:21:53.574Z,25.45
2022-08-17T18:24:36.862Z,25.39
2022-08-17T18:27:27.858Z,25.37
2022-08-17T18:29:57.590Z,25.29
2022-08-17T18:32:38.572Z,25.27
2022-08-17T18:35:11.549Z,25.24
2022-08-17T18:37:59.084Z,25.20
2022-08-17T18:40:31.086Z,25.15
2022-08-17T18:43:03.569Z,25.12
2022-08-17T18:45:52.026Z,25.05
2022-08-17T18:48:33.331Z,25.01
2022-08-17T18:51:21.091Z,24.94
2022-08-17T18:54:09.275Z,24.94
2022-08-17T18:56:45.442Z,24.80
2022-08-17T18:59:14.169Z,24.89
2022-08-17T19:02:05.068Z,24.76
2022-08-17T19:04:54.666Z,24.68
2022-08-17T19:07:32.531Z,24.79
2022-08-17T19:10:23.489Z,24.75
2022-08-17T19:13:12.760Z,24.63
2022-08-17T19:16:14.360Z,24.53
2022-08-17T19:18:40.615Z,24.48
2022-08-17T19:21:35.046Z,24.62
2022-08-17T19:24:19.365Z,24.53
2022-08-17T19:27:00.834Z,24.54
2022-08-17T19:29:53.840Z,24.52
2022-08-17T19:32:25.634Z,24.48
2022-08-17T19:34:53.997Z,24.42
2022-08-17T19:37:34.473Z,24.42
2022-08-17T19:40:48.909Z,24.38
2022-08-17T19:43:40.699Z,24.32
2022-08-17T19:46:26.292Z,24.28
2022-08-17T19:48:58.887Z,24.24
2022-08-17T19:51:41.749Z,24.21
2022-08-17T19:54:36.225Z,24.19
2022-08-17T19:57:12.523Z,24.13
2022-08-17T19:59:48.710Z,24.13
2022-08-17T20:02:28.566Z,24.08
2022-08-17T20:05:00.288Z,24.04
2022-08-17T20:07:59.496Z,24.01
2022-08-17T20:10:54.561Z,23.94
2022-08-17T20:13:32.897Z,23.87
2022-08-17T20:16:01.705Z,23.86
2022-08-17T20:18:44.431Z,23.81
2022-08-17T20:21:49.076Z,23.77
2022-08-17T20:24:28.701Z,23.71
2022-08-17T20:27:09.976Z,23.71
2022-08-17T20:29:55.475Z,23.67
2022-08-17T20:32:28.737Z,23.62
2022-08-17T20:35:20.974Z,23.60
2022-08-17T20:38:12.558Z,23.51
2022-08-17T20:40:45.393Z,23.46
2022-08-17T20:43:33.939Z,23.43
2022-08-17T20:46:37.865Z,23.38
2022-08-17T20:49:23.613Z,23.38
2022-08-17T20:52:16.743Z,23.32
2022-08-17T20:54:53.273Z,23.31
2022-08-17T20:57:32.512Z,23.30
2022-08-17T21:00:15.245Z,23.28
2022-08-17T21:02:51.207Z,23.27
2022-08-17T21:05:38.491Z,23.25
2022-08-17T21:08:15.727Z,23.24
2022-08-17T21:10:45.652Z,23.22
2022-08-17T21:13:15.690Z,23.20
2022-08-17T21:16:00.681Z,23.18
2022-08-17T21:18:47.360Z,23.16
2022-08-17T21:21:50.874Z,23.15
2022-08-17T21:24:37.983Z,23.13
2022-08-17T21:27:05.435Z,23.12
2022-08-17T21:29:40.385Z,23.09
2022-08-17T21:32:08.025Z,23.08
2022-08-17T21:34:42.665Z,23.06
2022-08-17T21:37:46.492Z,23.04
2022-08-17T21:40:13.430Z,23.00
2022-08-17T21:42:50.379Z,22.99
2022-08-17T21:45:25.660Z,22.94
2022-08-17T21:48:19.728Z,22.95
2022-08-17T21:50:57.830Z,22.88
2022-08-17T21:53:34.180Z,22.87
2022-08-17T21:56:01.348Z,22.85
2022-08-17T21:58:32.359Z,22.80
2022-08-17T22:01:21.266Z,22.80
2022-08-17T22:04:03.989Z,22.76
2022-08-17T22:06:56.634Z,22.71
2022-08-17T22:09:32.374Z,22.69
2022-08-17T22:12:07.696Z,22.65
2022-08-17T22:15:04.296Z,22.59
2022-08-17T22:17:45.331Z,22.58
2022-08-17T22:20:20.237Z,22.53
2022-08-17T22:23:08.318Z,22.49
2022-08-17T22:25:39.342Z,22.45
2022-08-17T22:28:09.595Z,22.40
2022-08-17T22:30:38.551Z,22.40
2022-08-17T22:33:30.843Z,22.39
2022-08-17T22:36:25.672Z,22.36
2022-08-17T22:38:56.676Z,22.28
2022-08-17T22:41:31.862Z,22.26
2022-08-17T22:44:21.187Z,22.24
2022-08-17T22:46:59.567Z,22.21
2022-08-17T22:49:29.324Z,22.18
2022-08-17T22:52:20.535Z,22.17
2022-08-17T22:55:09.182Z,22.15
2022-08-17T22:58:03.344Z,22.13
2022-08-17T23:00:35.433Z,22.13
2022-08-17T23:03:17.922Z,22.11
2022-08-17T23:06:09.802Z,22.10
2022-08-17T23:08:55.155Z,22.07
2022-08-17T23:11:36.875Z,22.03
2022-08-17T23:14:16.526Z,22.02
2022-08-17T23:16:43.646Z,21.94
2022-08-17T23:19:17.815Z,21.95
2022-08-17T23:21:45.233Z,21.95
2022-08-17T23:24:19.869Z,21.91
2022-08-17T23:26:47.518Z,21.85
2022-08-17T23:29:14.847Z,21.88
2022-08-17T23:31:42.039Z,21.85
2022-08-17T23:34:11.904Z,21.83
2022-08-17T23:36:39.104Z,21.78
2022-08-17T23:39:07.161Z,21.80
2022-08-17T23:41:37.945Z,21.79
2022-08-17T23:44:06.487Z,21.77
2022-08-17T23:46:34.680Z,21.74
2022-08-17T23:49:01.898Z,21.72
2022-08-17T23:51:34.693Z,21.73
2022-08-17T23:54:12.705Z,21.72
2022-08-17T23:56:48.175Z,21.71
2022-08-17T23:59:17.015Z,21.71
